sensor_id;sensor_type;location;lat;lon;timestamp;pressure;altitude;pressure_sealevel;temperature;humidity
58975;BME280;44751;52.236;5.178;2023-02-28T00:01:05;103054.69;;;1.78;100.00
58975;BME280;44751;52.236;5.178;2023-02-28T00:03:34;103053.38;;;1.87;100.00
58975;BME280;44751;52.236;5.178;2023-02-28T00:06:03;103052.38;;;1.89;100.00
58975;BME280;44751;52.236;5.178;2023-02-28T00:08:30;103057.47;;;1.96;100.00
58975;BME280;44751;52.236;5.178;2023-02-28T00:11:01;103048.94;;;1.87;100.00
58975;BME280;44751;52.236;5.178;2023-02-28T00:13:41;103064.13;;;2.06;100.00
58975;BME280;44751;52.236;5.178;2023-02-28T00:16:11;103056.03;;;2.08;100.00
58975;BME280;44751;52.236;5.178;2023-02-28T00:18:39;103063.31;;;2.04;100.00
58975;BME280;44751;52.236;5.178;2023-02-28T00:21:09;103057.31;;;1.99;100.00
58975;BME280;44751;52.236;5.178;2023-02-28T00:23:36;103051.31;;;2.14;100.00
58975;BME280;44751;52.236;5.178;2023-02-28T00:26:03;103054.63;;;2.19;100.00
58975;BME280;44751;52.236;5.178;2023-02-28T00:28:30;103046.50;;;2.23;100.00
58975;BME280;44751;52.236;5.178;2023-02-28T00:30:56;103061.19;;;2.31;100.00
58975;BME280;44751;52.236;5.178;2023-02-28T00:33:27;103057.81;;;2.47;100.00
58975;BME280;44751;52.236;5.178;2023-02-28T00:36:02;103058.63;;;2.49;100.00
58975;BME280;44751;52.236;5.178;2023-02-28T00:38:29;103061.56;;;2.43;100.00
58975;BME280;44751;52.236;5.178;2023-02-28T00:40:58;103060.28;;;2.52;100.00
58975;BME280;44751;52.236;5.178;2023-02-28T00:43:30;103055.66;;;2.55;100.00
58975;BME280;44751;52.236;5.178;2023-02-28T00:45:56;103044.00;;;2.77;100.00
58975;BME280;44751;52.236;5.178;2023-02-28T00:48:23;103046.19;;;2.69;100.00
58975;BME280;44751;52.236;5.178;2023-02-28T00:50:49;103052.34;;;2.69;100.00
58975;BME280;44751;52.236;5.178;2023-02-28T00:53:16;103053.88;;;2.75;100.00
58975;BME280;44751;52.236;5.178;2023-02-28T00:55:45;103054.81;;;2.74;100.00
58975;BME280;44751;52.236;5.178;2023-02-28T00:58:12;103045.03;;;2.75;100.00
58975;BME280;44751;52.236;5.178;2023-02-28T01:00:38;103054.25;;;2.67;100.00
58975;BME280;44751;52.236;5.178;2023-02-28T01:03:05;103057.47;;;2.74;100.00
58975;BME280;44751;52.236;5.178;2023-02-28T01:05:32;103057.28;;;2.79;100.00
58975;BME280;44751;52.236;5.178;2023-02-28T01:07:58;103054.69;;;2.77;100.00
58975;BME280;44751;52.236;5.178;2023-02-28T01:10:27;103058.25;;;2.76;100.00
58975;BME280;44751;52.236;5.178;2023-02-28T01:12:56;103061.09;;;2.73;100.00
58975;BME280;44751;52.236;5.178;2023-02-28T01:15:22;103065.75;;;2.68;100.00
58975;BME280;44751;52.236;5.178;2023-02-28T01:17:49;103061.72;;;2.78;100.00
58975;BME280;44751;52.236;5.178;2023-02-28T01:20:16;103051.94;;;2.79;100.00
58975;BME280;44751;52.236;5.178;2023-02-28T01:22:42;103061.03;;;2.75;100.00
58975;BME280;44751;52.236;5.178;2023-02-28T01:25:09;103054.81;;;2.74;100.00
58975;BME280;44751;52.236;5.178;2023-02-28T01:27:35;103059.13;;;2.77;100.00
58975;BME280;44751;52.236;5.178;2023-02-28T01:30:05;103049.47;;;2.74;100.00
58975;BME280;44751;52.236;5.178;2023-02-28T01:32:32;103047.97;;;2.68;100.00
58975;BME280;44751;52.236;5.178;2023-02-28T01:34:58;103046.47;;;2.63;100.00
58975;BME280;44751;52.236;5.178;2023-02-28T01:37:25;103043.59;;;2.67;100.00
58975;BME280;44751;52.236;5.178;2023-02-28T01:39:51;103048.69;;;2.72;100.00
58975;BME280;44751;52.236;5.178;2023-02-28T01:42:18;103044.94;;;2.76;100.00
58975;BME280;44751;52.236;5.178;2023-02-28T01:45:01;103046.75;;;2.76;100.00
58975;BME280;44751;52.236;5.178;2023-02-28T01:47:32;103040.03;;;2.67;100.00
58975;BME280;44751;52.236;5.178;2023-02-28T01:50:02;103050.56;;;2.70;100.00
58975;BME280;44751;52.236;5.178;2023-02-28T01:52:32;103041.63;;;2.71;100.00
58975;BME280;44751;52.236;5.178;2023-02-28T01:55:00;103034.25;;;2.76;100.00
58975;BME280;44751;52.236;5.178;2023-02-28T01:57:32;103037.94;;;2.74;100.00
58975;BME280;44751;52.236;5.178;2023-02-28T02:00:11;103043.84;;;2.80;100.00
58975;BME280;44751;52.236;5.178;2023-02-28T02:02:42;103027.47;;;2.70;100.00
58975;BME280;44751;52.236;5.178;2023-02-28T02:05:14;103030.19;;;2.69;100.00
58975;BME280;44751;52.236;5.178;2023-02-28T02:07:43;103035.13;;;2.77;100.00
58975;BME280;44751;52.236;5.178;2023-02-28T02:10:16;103025.00;;;2.66;100.00
58975;BME280;44751;52.236;5.178;2023-02-28T02:13:19;103028.22;;;2.73;100.00
58975;BME280;44751;52.236;5.178;2023-02-28T02:18:53;103030.75;;;2.76;100.00
58975;BME280;44751;52.236;5.178;2023-02-28T02:24:37;103026.00;;;2.82;100.00
58975;BME280;44751;52.236;5.178;2023-02-28T02:40:35;103030.16;;;2.88;100.00
58975;BME280;44751;52.236;5.178;2023-02-28T02:43:20;103025.72;;;2.89;100.00
58975;BME280;44751;52.236;5.178;2023-02-28T02:45:56;103017.91;;;2.84;100.00
58975;BME280;44751;52.236;5.178;2023-02-28T02:48:29;103015.31;;;2.82;100.00
58975;BME280;44751;52.236;5.178;2023-02-28T02:51:03;103024.88;;;2.69;100.00
58975;BME280;44751;52.236;5.178;2023-02-28T02:53:34;103026.19;;;2.78;100.00
58975;BME280;44751;52.236;5.178;2023-02-28T02:56:03;103021.88;;;2.75;100.00
58975;BME280;44751;52.236;5.178;2023-02-28T02:58:33;103017.56;;;2.73;100.00
58975;BME280;44751;52.236;5.178;2023-02-28T03:01:03;103025.84;;;2.86;100.00
58975;BME280;44751;52.236;5.178;2023-02-28T03:03:35;103025.84;;;2.86;100.00
58975;BME280;44751;52.236;5.178;2023-02-28T03:06:02;103017.03;;;2.83;100.00
58975;BME280;44751;52.236;5.178;2023-02-28T03:08:34;103028.88;;;2.78;100.00
58975;BME280;44751;52.236;5.178;2023-02-28T03:11:07;103016.06;;;2.67;100.00
58975;BME280;44751;52.236;5.178;2023-02-28T03:14:04;103018.72;;;2.67;100.00
58975;BME280;44751;52.236;5.178;2023-02-28T03:19:34;103017.56;;;2.73;100.00
58975;BME280;44751;52.236;5.178;2023-02-28T03:24:49;103001.56;;;2.73;100.00
58975;BME280;44751;52.236;5.178;2023-02-28T03:27:40;103011.22;;;2.75;100.00
58975;BME280;44751;52.236;5.178;2023-02-28T03:30:33;103007.47;;;2.79;100.00
58975;BME280;44751;52.236;5.178;2023-02-28T03:33:26;103014.16;;;2.88;100.00
58975;BME280;44751;52.236;5.178;2023-02-28T03:35:58;103016.97;;;2.85;100.00
58975;BME280;44751;52.236;5.178;2023-02-28T03:41:35;103001.28;;;2.79;100.00
58975;BME280;44751;52.236;5.178;2023-02-28T03:44:07;103014.44;;;2.82;100.00
58975;BME280;44751;52.236;5.178;2023-02-28T03:46:44;103022.34;;;2.66;100.00
58975;BME280;44751;52.236;5.178;2023-02-28T03:49:26;103022.09;;;2.90;100.00
58975;BME280;44751;52.236;5.178;2023-02-28T03:51:54;103021.75;;;2.78;100.00
58975;BME280;44751;52.236;5.178;2023-02-28T03:54:35;103032.69;;;2.91;100.00
58975;BME280;44751;52.236;5.178;2023-02-28T03:57:11;103025.78;;;2.87;100.00
58975;BME280;44751;52.236;5.178;2023-02-28T03:59:48;103020.88;;;2.97;100.00
58975;BME280;44751;52.236;5.178;2023-02-28T04:02:18;103022.22;;;2.87;100.00
58975;BME280;44751;52.236;5.178;2023-02-28T04:04:45;103027.97;;;2.96;100.00
58975;BME280;44751;52.236;5.178;2023-02-28T04:07:14;103022.13;;;3.07;100.00
58975;BME280;44751;52.236;5.178;2023-02-28T04:09:41;103016.03;;;2.86;100.00
58975;BME280;44751;52.236;5.178;2023-02-28T04:12:08;103031.66;;;2.94;100.00
58975;BME280;44751;52.236;5.178;2023-02-28T04:14:35;103027.78;;;2.82;100.00
58975;BME280;44751;52.236;5.178;2023-02-28T04:17:01;103025.34;;;2.77;100.00
58975;BME280;44751;52.236;5.178;2023-02-28T04:19:28;103035.78;;;2.82;100.00
58975;BME280;44751;52.236;5.178;2023-02-28T04:21:54;103037.22;;;2.89;100.00
58975;BME280;44751;52.236;5.178;2023-02-28T04:24:25;103042.25;;;2.95;100.00
58975;BME280;44751;52.236;5.178;2023-02-28T04:26:54;103028.88;;;2.78;100.00
58975;BME280;44751;52.236;5.178;2023-02-28T04:29:23;103028.78;;;2.79;100.00
58975;BME280;44751;52.236;5.178;2023-02-28T04:31:53;103028.78;;;2.79;100.00
58975;BME280;44751;52.236;5.178;2023-02-28T04:34:27;103028.38;;;2.69;100.00
58975;BME280;44751;52.236;5.178;2023-02-28T04:36:54;103036.59;;;2.84;100.00
58975;BME280;44751;52.236;5.178;2023-02-28T04:39:23;103031.38;;;2.81;100.00
58975;BME280;44751;52.236;5.178;2023-02-28T04:41:50;103029.44;;;2.65;100.00
58975;BME280;44751;52.236;5.178;2023-02-28T04:44:22;103032.13;;;2.65;100.00
58975;BME280;44751;52.236;5.178;2023-02-28T04:46:49;103029.53;;;2.64;100.00
58975;BME280;44751;52.236;5.178;2023-02-28T04:49:15;103031.47;;;2.60;100.00
58975;BME280;44751;52.236;5.178;2023-02-28T04:51:42;103035.22;;;2.56;100.00
58975;BME280;44751;52.236;5.178;2023-02-28T04:54:09;103024.38;;;2.61;100.00
58975;BME280;44751;52.236;5.178;2023-02-28T04:56:38;103030.53;;;2.61;100.00
58975;BME280;44751;52.236;5.178;2023-02-28T04:59:05;103033.13;;;2.63;100.00
58975;BME280;44751;52.236;5.178;2023-02-28T05:01:33;103026.16;;;2.60;100.00
58975;BME280;44751;52.236;5.178;2023-02-28T05:04:03;103029.47;;;2.46;100.00
58975;BME280;44751;52.236;5.178;2023-02-28T05:06:32;103021.25;;;2.51;100.00
58975;BME280;44751;52.236;5.178;2023-02-28T05:08:59;103022.19;;;2.50;100.00
58975;BME280;44751;52.236;5.178;2023-02-28T05:11:31;103022.34;;;2.47;100.00
58975;BME280;44751;52.236;5.178;2023-02-28T05:14:01;103026.78;;;2.46;100.00
58975;BME280;44751;52.236;5.178;2023-02-28T05:16:32;103025.06;;;2.45;100.00
58975;BME280;44751;52.236;5.178;2023-02-28T05:18:59;103025.41;;;2.37;100.00
58975;BME280;44751;52.236;5.178;2023-02-28T05:21:34;103023.00;;;2.32;100.00
58975;BME280;44751;52.236;5.178;2023-02-28T05:24:03;103035.16;;;2.38;100.00
58975;BME280;44751;52.236;5.178;2023-02-28T05:26:31;103027.31;;;2.35;100.00
58975;BME280;44751;52.236;5.178;2023-02-28T05:29:00;103027.00;;;2.41;100.00
58975;BME280;44751;52.236;5.178;2023-02-28T05:31:26;103025.13;;;2.24;100.00
58975;BME280;44751;52.236;5.178;2023-02-28T05:33:53;103027.69;;;2.26;100.00
58975;BME280;44751;52.236;5.178;2023-02-28T05:36:20;103020.50;;;2.09;100.00
58975;BME280;44751;52.236;5.178;2023-02-28T05:38:50;103021.72;;;2.01;100.00
58975;BME280;44751;52.236;5.178;2023-02-28T05:41:18;103039.09;;;2.10;100.00
58975;BME280;44751;52.236;5.178;2023-02-28T05:43:46;103038.56;;;2.02;100.00
58975;BME280;44751;52.236;5.178;2023-02-28T05:46:18;103033.94;;;2.05;100.00
58975;BME280;44751;52.236;5.178;2023-02-28T05:48:47;103034.38;;;1.96;100.00
58975;BME280;44751;52.236;5.178;2023-02-28T05:51:14;103040.34;;;2.01;100.00
58975;BME280;44751;52.236;5.178;2023-02-28T05:53:41;103031.84;;;1.93;100.00
58975;BME280;44751;52.236;5.178;2023-02-28T05:56:07;103040.84;;;1.90;100.00
58975;BME280;44751;52.236;5.178;2023-02-28T05:58:34;103034.97;;;1.82;100.00
58975;BME280;44751;52.236;5.178;2023-02-28T06:01:31;103039.69;;;1.75;100.00
58975;BME280;44751;52.236;5.178;2023-02-28T06:03:59;103040.91;;;1.89;100.00
58975;BME280;44751;52.236;5.178;2023-02-28T06:06:26;103038.88;;;1.94;100.00
58975;BME280;44751;52.236;5.178;2023-02-28T06:08:52;103044.03;;;1.78;100.00
58975;BME280;44751;52.236;5.178;2023-02-28T06:11:19;103045.59;;;1.61;100.00
58975;BME280;44751;52.236;5.178;2023-02-28T06:13:46;103042.28;;;1.56;100.00
58975;BME280;44751;52.236;5.178;2023-02-28T06:16:16;103042.91;;;1.40;100.00
58975;BME280;44751;52.236;5.178;2023-02-28T06:18:42;103035.38;;;1.29;100.00
58975;BME280;44751;52.236;5.178;2023-02-28T06:21:09;103054.63;;;1.36;100.00
58975;BME280;44751;52.236;5.178;2023-02-28T06:23:35;103048.75;;;1.28;100.00
58975;BME280;44751;52.236;5.178;2023-02-28T06:26:02;103044.50;;;1.24;100.00
58975;BME280;44751;52.236;5.178;2023-02-28T06:28:29;103049.81;;;1.01;100.00
58975;BME280;44751;52.236;5.178;2023-02-28T06:30:58;103055.13;;;1.01;100.00
58975;BME280;44751;52.236;5.178;2023-02-28T06:33:25;103059.59;;;1.01;100.00
58975;BME280;44751;52.236;5.178;2023-02-28T06:35:52;103055.84;;;0.83;100.00
58975;BME280;44751;52.236;5.178;2023-02-28T06:38:18;103051.53;;;0.80;100.00
58975;BME280;44751;52.236;5.178;2023-02-28T06:40:56;103051.94;;;0.69;100.00
58975;BME280;44751;52.236;5.178;2023-02-28T06:43:24;103059.88;;;0.71;100.00
58975;BME280;44751;52.236;5.178;2023-02-28T06:45:55;103060.44;;;0.79;100.00
58975;BME280;44751;52.236;5.178;2023-02-28T06:48:25;103059.97;;;0.68;100.00
58975;BME280;44751;52.236;5.178;2023-02-28T06:51:03;103071.59;;;0.65;100.00
58975;BME280;44751;52.236;5.178;2023-02-28T06:53:30;103067.31;;;0.61;100.00
58975;BME280;44751;52.236;5.178;2023-02-28T06:55:57;103071.75;;;0.60;100.00
58975;BME280;44751;52.236;5.178;2023-02-28T06:58:23;103080.75;;;0.56;100.00
58975;BME280;44751;52.236;5.178;2023-02-28T07:00:53;103068.31;;;0.58;100.00
58975;BME280;44751;52.236;5.178;2023-02-28T07:03:19;103081.59;;;0.58;100.00
58975;BME280;44751;52.236;5.178;2023-02-28T07:05:46;103074.25;;;0.65;100.00
58975;BME280;44751;52.236;5.178;2023-02-28T07:08:13;103084.50;;;0.74;100.00
58975;BME280;44751;52.236;5.178;2023-02-28T07:10:41;103084.34;;;0.79;100.00
58975;BME280;44751;52.236;5.178;2023-02-28T07:13:11;103077.25;;;0.80;100.00
58975;BME280;44751;52.236;5.178;2023-02-28T07:15:37;103085.78;;;0.88;100.00
58975;BME280;44751;52.236;5.178;2023-02-28T07:18:04;103088.44;;;0.88;100.00
58975;BME280;44751;52.236;5.178;2023-02-28T07:20:31;103083.97;;;0.88;100.00
58975;BME280;44751;52.236;5.178;2023-02-28T07:22:57;103085.72;;;0.89;100.00
58975;BME280;44751;52.236;5.178;2023-02-28T07:25:27;103072.19;;;0.96;100.00
58975;BME280;44751;52.236;5.178;2023-02-28T07:27:56;103083.03;;;0.91;100.00
58975;BME280;44751;52.236;5.178;2023-02-28T07:30:24;103074.25;;;1.11;100.00
58975;BME280;44751;52.236;5.178;2023-02-28T07:32:50;103078.44;;;1.17;100.00
58975;BME280;44751;52.236;5.178;2023-02-28T07:35:17;103083.69;;;1.41;100.00
58975;BME280;44751;52.236;5.178;2023-02-28T07:37:46;103074.78;;;1.42;100.00
58975;BME280;44751;52.236;5.178;2023-02-28T07:40:13;103080.22;;;1.39;100.00
58975;BME280;44751;52.236;5.178;2023-02-28T07:42:41;103074.78;;;1.42;100.00
58975;BME280;44751;52.236;5.178;2023-02-28T07:45:09;103072.19;;;1.61;100.00
58975;BME280;44751;52.236;5.178;2023-02-28T07:47:45;103072.16;;;1.63;100.00
58975;BME280;44751;52.236;5.178;2023-02-28T07:50:14;103074.75;;;1.64;100.00
58975;BME280;44751;52.236;5.178;2023-02-28T07:52:41;103067.03;;;1.58;100.00
58975;BME280;44751;52.236;5.178;2023-02-28T07:55:10;103068.22;;;1.51;100.00
58975;BME280;44751;52.236;5.178;2023-02-28T07:57:37;103070.81;;;1.52;100.00
58975;BME280;44751;52.236;5.178;2023-02-28T08:00:09;103082.47;;;1.71;100.00
58975;BME280;44751;52.236;5.178;2023-02-28T08:02:37;103081.41;;;1.75;100.00
58975;BME280;44751;52.236;5.178;2023-02-28T08:05:05;103076.81;;;1.78;100.00
58975;BME280;44751;52.236;5.178;2023-02-28T08:07:32;103075.09;;;1.77;100.00
58975;BME280;44751;52.236;5.178;2023-02-28T08:10:01;103074.22;;;1.77;100.00
58975;BME280;44751;52.236;5.178;2023-02-28T08:12:28;103075.03;;;1.79;100.00
58975;BME280;44751;52.236;5.178;2023-02-28T08:14:54;103081.00;;;1.84;100.00
58975;BME280;44751;52.236;5.178;2023-02-28T08:17:21;103076.09;;;1.96;100.00
58975;BME280;44751;52.236;5.178;2023-02-28T08:19:47;103084.13;;;1.94;100.00
58975;BME280;44751;52.236;5.178;2023-02-28T08:22:14;103086.63;;;1.99;100.00
58975;BME280;44751;52.236;5.178;2023-02-28T08:24:43;103082.66;;;1.87;100.00
58975;BME280;44751;52.236;5.178;2023-02-28T08:27:09;103093.72;;;1.98;100.00
58975;BME280;44751;52.236;5.178;2023-02-28T08:29:37;103089.47;;;1.94;100.00
58975;BME280;44751;52.236;5.178;2023-02-28T08:32:05;103068.69;;;2.02;100.00
58975;BME280;44751;52.236;5.178;2023-02-28T08:34:32;103083.19;;;1.95;100.00
58975;BME280;44751;52.236;5.178;2023-02-28T08:37:00;103085.41;;;1.85;100.00
58975;BME280;44751;52.236;5.178;2023-02-28T08:39:27;103098.56;;;2.09;100.00
58975;BME280;44751;52.236;5.178;2023-02-28T08:41:53;103088.16;;;2.04;100.00
58975;BME280;44751;52.236;5.178;2023-02-28T08:44:20;103098.25;;;1.96;100.00
58975;BME280;44751;52.236;5.178;2023-02-28T08:46:49;103089.56;;;2.12;100.00
58975;BME280;44751;52.236;5.178;2023-02-28T08:49:16;103097.25;;;2.19;100.00
58975;BME280;44751;52.236;5.178;2023-02-28T08:51:43;103080.97;;;2.26;100.00
58975;BME280;44751;52.236;5.178;2023-02-28T08:54:09;103095.81;;;2.52;100.00
58975;BME280;44751;52.236;5.178;2023-02-28T08:56:38;103090.81;;;2.64;100.00
58975;BME280;44751;52.236;5.178;2023-02-28T08:59:05;103099.69;;;2.83;100.00
58975;BME280;44751;52.236;5.178;2023-02-28T09:01:31;103099.78;;;3.01;100.00
58975;BME280;44751;52.236;5.178;2023-02-28T09:03:59;103097.88;;;3.03;100.00
58975;BME280;44751;52.236;5.178;2023-02-28T09:06:27;103092.06;;;2.95;100.00
58975;BME280;44751;52.236;5.178;2023-02-28T09:08:58;103095.81;;;2.71;100.00
58975;BME280;44751;52.236;5.178;2023-02-28T09:11:27;103093.94;;;2.93;100.00
58975;BME280;44751;52.236;5.178;2023-02-28T09:13:55;103105.47;;;2.93;100.00
58975;BME280;44751;52.236;5.178;2023-02-28T09:16:22;103108.34;;;3.08;100.00
58975;BME280;44751;52.236;5.178;2023-02-28T09:18:48;103107.63;;;2.85;100.00
58975;BME280;44751;52.236;5.178;2023-02-28T09:21:18;103105.91;;;2.65;100.00
58975;BME280;44751;52.236;5.178;2023-02-28T09:23:48;103103.75;;;2.73;100.00
58975;BME280;44751;52.236;5.178;2023-02-28T09:26:22;103108.84;;;2.97;100.00
58975;BME280;44751;52.236;5.178;2023-02-28T09:28:49;103103.75;;;2.92;100.00
58975;BME280;44751;52.236;5.178;2023-02-28T09:31:21;103106.91;;;3.01;100.00
58975;BME280;44751;52.236;5.178;2023-02-28T09:33:53;103104.28;;;3.18;100.00
58975;BME280;44751;52.236;5.178;2023-02-28T09:36:21;103106.44;;;3.10;100.00
58975;BME280;44751;52.236;5.178;2023-02-28T09:38:47;103110.66;;;2.96;100.00
58975;BME280;44751;52.236;5.178;2023-02-28T09:41:27;103106.75;;;3.04;100.00
58975;BME280;44751;52.236;5.178;2023-02-28T09:43:59;103108.56;;;3.03;100.00
58975;BME280;44751;52.236;5.178;2023-02-28T09:46:43;103116.75;;;2.99;100.00
58975;BME280;44751;52.236;5.178;2023-02-28T09:49:14;103105.19;;;3.00;100.00
58975;BME280;44751;52.236;5.178;2023-02-28T09:54:24;103105.97;;;3.21;100.00
58975;BME280;44751;52.236;5.178;2023-02-28T10:05:22;103123.13;;;4.05;100.00
58975;BME280;44751;52.236;5.178;2023-02-28T10:13:01;103118.09;;;3.64;100.00
58975;BME280;44751;52.236;5.178;2023-02-28T10:15:32;103112.22;;;3.92;100.00
58975;BME280;44751;52.236;5.178;2023-02-28T10:18:04;103107.91;;;4.41;100.00
58975;BME280;44751;52.236;5.178;2023-02-28T10:20:37;103111.25;;;4.62;100.00
58975;BME280;44751;52.236;5.178;2023-02-28T10:23:21;103107.88;;;5.23;100.00
58975;BME280;44751;52.236;5.178;2023-02-28T10:26:11;103122.34;;;5.04;100.00
58975;BME280;44751;52.236;5.178;2023-02-28T10:28:40;103107.06;;;4.90;100.00
58975;BME280;44751;52.236;5.178;2023-02-28T10:31:19;103104.72;;;4.84;100.00
58975;BME280;44751;52.236;5.178;2023-02-28T10:33:47;103101.59;;;4.92;100.00
58975;BME280;44751;52.236;5.178;2023-02-28T10:36:18;103102.53;;;4.91;100.00
58975;BME280;44751;52.236;5.178;2023-02-28T10:38:45;103101.78;;;4.89;100.00
58975;BME280;44751;52.236;5.178;2023-02-28T10:41:31;103095.75;;;5.01;100.00
58975;BME280;44751;52.236;5.178;2023-02-28T10:44:21;103087.84;;;5.14;100.00
58975;BME280;44751;52.236;5.178;2023-02-28T10:46:48;103095.03;;;4.82;100.00
58975;BME280;44751;52.236;5.178;2023-02-28T10:49:28;103085.03;;;5.01;100.00
58975;BME280;44751;52.236;5.178;2023-02-28T10:51:57;103096.16;;;4.94;100.00
58975;BME280;44751;52.236;5.178;2023-02-28T10:54:36;103090.53;;;4.66;96.19
58975;BME280;44751;52.236;5.178;2023-02-28T10:57:21;103090.97;;;4.74;97.85
58975;BME280;44751;52.236;5.178;2023-02-28T10:59:53;103081.94;;;4.93;91.67
58975;BME280;44751;52.236;5.178;2023-02-28T11:02:33;103087.19;;;5.11;90.73
58975;BME280;44751;52.236;5.178;2023-02-28T11:05:00;103085.84;;;5.50;92.61
58975;BME280;44751;52.236;5.178;2023-02-28T11:07:26;103083.63;;;5.88;95.56
58975;BME280;44751;52.236;5.178;2023-02-28T11:09:56;103069.84;;;5.79;86.26
58975;BME280;44751;52.236;5.178;2023-02-28T11:12:33;103078.34;;;5.72;88.90
58975;BME280;44751;52.236;5.178;2023-02-28T11:15:23;103066.66;;;6.03;86.58
58975;BME280;44751;52.236;5.178;2023-02-28T11:18:00;103070.09;;;6.64;84.62
58975;BME280;44751;52.236;5.178;2023-02-28T11:20:30;103066.97;;;6.13;84.26
58975;BME280;44751;52.236;5.178;2023-02-28T11:23:01;103064.91;;;6.02;nan
58975;BME280;44751;52.236;5.178;2023-02-28T11:27:59;103056.81;;;6.04;81.77
58975;BME280;44751;52.236;5.178;2023-02-28T11:30:40;103048.81;;;5.88;82.16
58975;BME280;44751;52.236;5.178;2023-02-28T11:35:53;103058.81;;;6.15;87.04
58975;BME280;44751;52.236;5.178;2023-02-28T11:38:24;103051.06;;;6.10;82.46
58975;BME280;44751;52.236;5.178;2023-02-28T11:46:23;103038.25;;;6.44;84.62
58975;BME280;44751;52.236;5.178;2023-02-28T11:51:48;103039.06;;;6.59;79.01
58975;BME280;44751;52.236;5.178;2023-02-28T12:00:14;103034.78;;;6.13;83.39
58975;BME280;44751;52.236;5.178;2023-02-28T12:06:05;103038.00;;;6.48;79.78
58975;BME280;44751;52.236;5.178;2023-02-28T12:11:24;103016.69;;;6.17;77.88
58975;BME280;44751;52.236;5.178;2023-02-28T12:22:49;103021.81;;;5.76;77.69
58975;BME280;44751;52.236;5.178;2023-02-28T12:25:38;103022.59;;;5.78;81.04
58975;BME280;44751;52.236;5.178;2023-02-28T12:28:14;103018.44;;;6.03;76.37
58975;BME280;44751;52.236;5.178;2023-02-28T12:31:21;103021.94;;;5.89;77.94
58975;BME280;44751;52.236;5.178;2023-02-28T12:34:25;103005.56;;;5.94;79.13
58975;BME280;44751;52.236;5.178;2023-02-28T12:36:58;103005.81;;;6.05;77.05
58975;BME280;44751;52.236;5.178;2023-02-28T12:39:38;103011.22;;;5.89;79.77
58975;BME280;44751;52.236;5.178;2023-02-28T12:42:19;102999.66;;;6.03;77.12
58975;BME280;44751;52.236;5.178;2023-02-28T12:45:02;102995.66;;;6.11;78.52
58975;BME280;44751;52.236;5.178;2023-02-28T12:47:38;102996.31;;;6.14;76.57
58975;BME280;44751;52.236;5.178;2023-02-28T12:50:11;103006.16;;;5.99;76.65
58975;BME280;44751;52.236;5.178;2023-02-28T12:52:43;102998.28;;;5.96;74.73
58975;BME280;44751;52.236;5.178;2023-02-28T13:09:31;102985.22;;;6.06;74.92
58975;BME280;44751;52.236;5.178;2023-02-28T13:11:58;102977.16;;;6.06;74.17
58975;BME280;44751;52.236;5.178;2023-02-28T13:14:28;102982.13;;;6.41;76.66
58975;BME280;44751;52.236;5.178;2023-02-28T13:19:40;102963.63;;;6.51;74.01
58975;BME280;44751;52.236;5.178;2023-02-28T13:22:36;102969.13;;;6.20;73.28
58975;BME280;44751;52.236;5.178;2023-02-28T13:27:53;102977.84;;;6.66;72.75
58975;BME280;44751;52.236;5.178;2023-02-28T13:33:36;102981.38;;;6.67;71.60
58975;BME280;44751;52.236;5.178;2023-02-28T13:38:44;102968.28;;;6.48;70.58
58975;BME280;44751;52.236;5.178;2023-02-28T13:41:43;102959.75;;;6.55;67.76
58975;BME280;44751;52.236;5.178;2023-02-28T13:44:20;102958.59;;;6.59;70.81
58975;BME280;44751;52.236;5.178;2023-02-28T13:49:34;102955.97;;;6.72;68.92
58975;BME280;44751;52.236;5.178;2023-02-28T13:52:16;102953.31;;;6.72;66.48
58975;BME280;44751;52.236;5.178;2023-02-28T13:58:46;102952.09;;;7.04;68.68
58975;BME280;44751;52.236;5.178;2023-02-28T14:01:32;102948.81;;;6.86;66.66
58975;BME280;44751;52.236;5.178;2023-02-28T14:06:54;102949.84;;;6.70;68.83
58975;BME280;44751;52.236;5.178;2023-02-28T14:09:32;102948.00;;;6.98;68.60
58975;BME280;44751;52.236;5.178;2023-02-28T14:15:39;102946.16;;;6.86;68.89
58975;BME280;44751;52.236;5.178;2023-02-28T14:21:24;102937.56;;;6.94;69.26
58975;BME280;44751;52.236;5.178;2023-02-28T14:37:58;102929.88;;;7.02;67.80
58975;BME280;44751;52.236;5.178;2023-02-28T14:40:33;102930.13;;;7.25;67.78
58975;BME280;44751;52.236;5.178;2023-02-28T14:43:16;102920.66;;;7.19;67.56
58975;BME280;44751;52.236;5.178;2023-02-28T14:45:59;102922.50;;;7.19;68.42
58975;BME280;44751;52.236;5.178;2023-02-28T14:48:30;102918.84;;;7.20;68.82
58975;BME280;44751;52.236;5.178;2023-02-28T14:51:00;102925.06;;;7.07;67.88
58975;BME280;44751;52.236;5.178;2023-02-28T14:53:29;102924.19;;;7.07;66.43
58975;BME280;44751;52.236;5.178;2023-02-28T14:55:59;102928.63;;;6.80;66.17
58975;BME280;44751;52.236;5.178;2023-02-28T14:58:33;102921.41;;;7.08;68.85
58975;BME280;44751;52.236;5.178;2023-02-28T15:01:03;102934.19;;;7.05;69.80
58975;BME280;44751;52.236;5.178;2023-02-28T15:03:36;102930.09;;;7.12;68.35
58975;BME280;44751;52.236;5.178;2023-02-28T15:06:06;102928.81;;;7.05;68.89
58975;BME280;44751;52.236;5.178;2023-02-28T15:08:35;102929.75;;;6.63;67.98
58975;BME280;44751;52.236;5.178;2023-02-28T15:11:08;102932.66;;;6.60;68.57
58975;BME280;44751;52.236;5.178;2023-02-28T15:13:40;102929.91;;;6.75;70.42
58975;BME280;44751;52.236;5.178;2023-02-28T15:16:12;102936.38;;;6.85;70.63
58975;BME280;44751;52.236;5.178;2023-02-28T15:18:51;102935.34;;;6.60;69.06
58975;BME280;44751;52.236;5.178;2023-02-28T15:21:26;102932.75;;;6.58;70.30
58975;BME280;44751;52.236;5.178;2023-02-28T15:24:43;102934.75;;;6.55;70.93
58975;BME280;44751;52.236;5.178;2023-02-28T15:27:16;102921.44;;;6.26;70.99
58975;BME280;44751;52.236;5.178;2023-02-28T15:29:45;102916.72;;;6.29;68.91